Time;durP1;ratioP1;P1;durP2;ratioP2;P2;SDS_P1;SDS_P2;PMS_P1;PMS_P2;Temp;Humidity;BMP_temperature;BMP_pressure;BME280_temperature;BME280_humidity;BME280_pressure;Samples;Min_cycle;Max_cycle;Signal;HPM_P1;HPM_P2
2022/12/04 00:01:19;;;;;;;43.67;24.37;;;;;;;7.04;76.36;100633.56;4517868;31;34592;-75
2022/12/04 00:03:47;;;;;;;44.17;24.58;;;;;;;6.56;77.85;100629.19;4512992;31;33340;-75
2022/12/04 00:06:17;;;;;;;40.17;24.20;;;;;;;6.25;79.26;100630.37;4515728;31;34515;-75
2022/12/04 00:08:46;;;;;;;44.33;23.85;;;;;;;6.27;79.55;100631.38;4516869;31;32985;-74
2022/12/04 00:11:16;;;;;;;43.15;24.23;;;;;;;6.34;78.89;100632.75;4515068;31;33908;-75
2022/12/04 00:13:44;;;;;;;43.28;23.55;;;;;;;6.60;77.63;100636.34;4509114;31;32779;-75
2022/12/04 00:16:17;;;;;;;39.08;22.37;;;;;;;6.28;78.32;100634.88;4504244;31;33826;-74
2022/12/04 00:18:46;;;;;;;40.38;22.02;;;;;;;5.93;80.53;100630.50;4511342;31;33955;-75
2022/12/04 00:21:16;;;;;;;48.90;24.63;;;;;;;5.74;81.57;100624.69;4510490;31;33970;-75
2022/12/04 00:23:43;;;;;;;44.15;24.08;;;;;;;5.93;80.82;100635.62;4505273;31;33624;-75
2022/12/04 00:26:13;;;;;;;44.40;24.25;;;;;;;5.99;80.29;100641.28;4514387;31;33753;-75
2022/12/04 00:28:41;;;;;;;41.05;23.42;;;;;;;5.81;81.11;100638.13;4515803;31;34654;-74
2022/12/04 00:31:11;;;;;;;38.92;23.73;;;;;;;6.06;80.28;100653.78;4508489;31;34718;-75
2022/12/04 00:33:39;;;;;;;46.75;24.50;;;;;;;6.42;79.21;100648.75;4512896;31;33302;-75
2022/12/04 00:36:09;;;;;;;40.78;23.60;;;;;;;6.48;78.50;100651.78;4503119;31;33798;-75
2022/12/04 00:38:37;;;;;;;41.95;22.80;;;;;;;6.22;79.72;100652.38;4516949;31;33982;-75
2022/12/04 00:41:08;;;;;;;39.08;22.20;;;;;;;5.95;80.59;100644.37;4515419;31;34414;-75
2022/12/04 00:43:35;;;;;;;48.67;25.15;;;;;;;6.07;79.87;100647.00;4517497;31;32224;-75
2022/12/04 00:46:03;;;;;;;46.03;24.42;;;;;;;5.80;81.10;100641.50;4512676;31;34362;-74
2022/12/04 00:48:30;;;;;;;43.50;24.27;;;;;;;6.61;78.38;100633.91;4512864;31;33966;-75
2022/12/04 00:51:04;;;;;;;41.78;22.25;;;;;;;6.40;78.84;100630.63;4505829;31;33933;-75
2022/12/04 00:53:32;;;;;;;43.38;23.75;;;;;;;6.03;79.21;100633.00;4505224;31;33570;-75
2022/12/04 00:56:04;;;;;;;45.45;25.10;;;;;;;6.21;79.50;100632.59;4513881;31;33656;-74
2022/12/04 00:58:32;;;;;;;42.78;23.52;;;;;;;6.47;77.73;100643.19;4501736;31;32437;-75
2022/12/04 01:01:01;;;;;;;43.70;23.95;;;;;;;6.49;77.73;100640.72;4516270;31;34406;-75
2022/12/04 01:03:29;;;;;;;44.25;23.20;;;;;;;6.60;77.18;100644.97;4505267;31;33052;-75
2022/12/04 01:05:57;;;;;;;39.67;22.05;;;;;;;6.69;76.82;100637.03;4505685;31;33691;-75
2022/12/04 01:08:24;;;;;;;43.03;23.02;;;;;;;6.75;76.83;100642.62;4499744;31;33997;-75
2022/12/04 01:10:51;;;;;;;41.30;22.77;;;;;;;6.95;76.21;100648.34;4505542;31;33859;-75
2022/12/04 01:13:19;;;;;;;45.33;23.30;;;;;;;6.56;77.47;100636.91;4506047;31;34034;-74
2022/12/04 01:15:48;;;;;;;41.15;21.92;;;;;;;6.29;78.36;100641.78;4513263;31;34535;-75
2022/12/04 01:18:16;;;;;;;39.42;22.48;;;;;;;6.16;79.03;100639.06;4515551;31;33930;-75
2022/12/04 01:20:48;;;;;;;39.10;21.62;;;;;;;6.41;78.56;100637.56;4516476;31;34109;-75
2022/12/04 01:23:16;;;;;;;42.40;22.13;;;;;;;6.05;79.68;100636.59;4508503;31;33673;-75
2022/12/04 01:25:55;;;;;;;41.35;22.75;;;;;;;6.40;78.50;100634.88;4504659;31;33614;-75
2022/12/04 01:28:23;;;;;;;45.33;23.35;;;;;;;6.18;79.65;100642.66;4511790;31;34058;-75
2022/12/04 01:31:01;;;;;;;42.25;23.25;;;;;;;5.98;80.79;100636.87;4507036;31;33515;-75
2022/12/04 01:33:30;;;;;;;37.70;20.80;;;;;;;6.15;80.51;100642.44;4515593;31;33085;-75
2022/12/04 01:35:59;;;;;;;38.83;22.73;;;;;;;6.25;79.89;100639.75;4503550;31;33575;-75
2022/12/04 01:38:27;;;;;;;40.72;22.33;;;;;;;6.22;80.06;100639.53;4512581;31;34524;-75
2022/12/04 01:40:55;;;;;;;44.40;23.15;;;;;;;6.33;79.82;100627.47;4515678;31;34460;-74
2022/12/04 01:43:24;;;;;;;44.90;23.17;;;;;;;6.43;78.87;100636.00;4506844;31;33611;-75
2022/12/04 01:45:54;;;;;;;39.15;22.40;;;;;;;6.67;78.19;100630.88;4513404;31;33774;-75
2022/12/04 01:48:38;;;;;;;40.53;22.58;;;;;;;6.28;79.33;100630.59;4502707;31;33743;-74
2022/12/04 01:51:25;;;;;;;42.55;23.30;;;;;;;5.93;81.12;100625.34;4513677;31;33692;-75
2022/12/04 01:53:55;;;;;;;43.65;23.58;;;;;;;6.19;79.91;100634.16;4512107;31;33160;-74
2022/12/04 01:56:25;;;;;;;45.65;24.27;;;;;;;5.63;82.48;100624.75;4505276;31;32930;-75
2022/12/04 01:58:55;;;;;;;44.28;25.10;;;;;;;6.23;80.39;100628.47;4514164;31;34018;-75
2022/12/04 02:01:26;;;;;;;42.03;24.17;;;;;;;5.44;83.51;100621.53;4508075;31;33150;-74
2022/12/04 02:03:54;;;;;;;45.53;25.48;;;;;;;5.47;83.33;100622.69;4515612;31;33420;-75
2022/12/04 02:06:21;;;;;;;45.50;25.30;;;;;;;5.45;83.88;100618.22;4516469;31;32600;-74
2022/12/04 02:08:49;;;;;;;50.78;26.55;;;;;;;5.53;83.36;100609.41;4510063;31;33447;-75
2022/12/04 02:11:24;;;;;;;44.65;24.15;;;;;;;5.19;84.92;100614.47;4499354;31;33782;-75
2022/12/04 02:13:55;;;;;;;;;;;;;;;5.74;82.91;100610.19;4500048;31;34713;-74
2022/12/04 02:16:43;;;;;;;48.53;27.50;;;;;;;5.55;82.98;100615.56;4503559;31;34158;-75
2022/12/04 02:19:33;;;;;;;47.05;25.00;;;;;;;5.49;82.84;100605.69;4511478;31;34489;-75
2022/12/04 02:22:04;;;;;;;45.83;25.65;;;;;;;5.57;83.44;100606.31;4513340;31;33627;-74
2022/12/04 02:24:50;;;;;;;48.38;25.58;;;;;;;6.04;80.67;100614.19;4503479;31;33448;-75
2022/12/04 02:27:35;;;;;;;51.72;27.50;;;;;;;5.77;81.65;100612.06;4516206;31;33600;-75
2022/12/04 02:30:05;;;;;;;43.87;24.58;;;;;;;5.90;80.44;100615.69;4514713;31;33729;-75
2022/12/04 02:32:44;;;;;;;45.72;25.40;;;;;;;6.04;79.75;100614.19;4510124;31;32962;-75
2022/12/04 02:35:15;;;;;;;45.65;24.23;;;;;;;6.18;79.48;100606.63;4507091;31;33379;-74
2022/12/04 02:37:45;;;;;;;44.58;24.83;;;;;;;5.64;81.33;100611.16;4510308;31;33826;-74
2022/12/04 02:40:57;;;;;;;46.37;24.65;;;;;;;5.55;81.76;100605.28;4501064;31;33781;-75
2022/12/04 02:43:44;;;;;;;43.50;24.02;;;;;;;5.24;83.39;100619.97;4505664;31;32519;-75
2022/12/04 02:46:22;;;;;;;49.03;25.40;;;;;;;5.00;84.56;100621.47;4513476;31;33628;-75
2022/12/04 02:48:52;;;;;;;46.58;25.30;;;;;;;5.25;83.14;100622.69;4505036;31;33767;-74
2022/12/04 02:51:22;;;;;;;44.72;26.08;;;;;;;5.01;84.30;100618.16;4514512;31;33647;-75
2022/12/04 02:53:55;;;;;;;46.20;25.40;;;;;;;5.30;83.68;100623.91;4513141;31;33373;-75
2022/12/04 02:56:27;;;;;;;49.15;26.00;;;;;;;5.21;83.96;100612.03;4502534;31;33511;-74
2022/12/04 02:59:01;;;;;;;51.90;26.40;;;;;;;5.24;83.34;100613.16;4512633;31;33443;-75
2022/12/04 03:01:36;;;;;;;48.78;25.42;;;;;;;5.25;83.45;100608.91;4511262;31;34618;-74
2022/12/04 03:04:14;;;;;;;47.35;25.77;;;;;;;5.00;84.33;100611.22;4515696;31;33616;-74
2022/12/04 03:06:47;;;;;;;53.00;27.83;;;;;;;4.71;85.89;100608.12;4510756;31;33814;-75
2022/12/04 03:09:25;;;;;;;49.70;26.90;;;;;;;4.82;85.18;100611.53;4514572;31;34463;-74
2022/12/04 03:11:56;;;;;;;50.65;26.98;;;;;;;5.35;83.50;100600.25;4504110;31;33925;-75
2022/12/04 03:14:30;;;;;;;48.40;26.25;;;;;;;5.63;81.57;100609.34;4504180;31;34169;-75
2022/12/04 03:17:03;;;;;;;51.53;27.90;;;;;;;5.25;82.94;100608.91;4503555;31;33646;-75
2022/12/04 03:19:58;;;;;;;54.17;27.17;;;;;;;5.23;83.54;100613.03;4505824;31;34638;-74
2022/12/04 03:22:26;;;;;;;54.65;28.73;;;;;;;4.84;84.94;100614.22;4500987;31;33728;-74
2022/12/04 03:24:55;;;;;;;55.85;30.62;;;;;;;4.63;86.52;100618.53;4511792;31;33918;-74
2022/12/04 03:27:30;;;;;;;49.80;27.35;;;;;;;5.05;85.49;100615.94;4512183;31;33498;-74
2022/12/04 03:30:03;;;;;;;54.15;28.87;;;;;;;4.96;85.44;100610.06;4514521;31;33723;-74
2022/12/04 03:32:46;;;;;;;54.15;27.42;;;;;;;4.88;85.57;100612.03;4509117;31;34578;-74
2022/12/04 03:35:35;;;;;;;54.60;28.02;;;;;;;5.40;83.78;100609.22;4507756;31;33623;-75
2022/12/04 03:38:16;;;;;;;54.55;28.10;;;;;;;5.27;83.84;100603.16;4506489;31;33342;-74
2022/12/04 03:40:59;;;;;;;58.20;28.65;;;;;;;5.03;83.58;100601.19;4517573;31;34060;-75
2022/12/04 03:43:46;;;;;;;55.97;28.58;;;;;;;4.93;84.41;100605.59;4511276;31;34669;-75
2022/12/04 03:46:18;;;;;;;48.45;27.23;;;;;;;4.74;86.15;100615.16;4516811;31;33883;-74
2022/12/04 03:49:03;;;;;;;53.63;27.95;;;;;;;4.76;85.81;100613.63;4507040;31;33489;-74
2022/12/04 03:51:55;;;;;;;49.08;28.75;;;;;;;4.88;85.47;100622.28;4500256;31;33457;-75
2022/12/04 03:54:28;;;;;;;53.60;28.95;;;;;;;5.14;84.22;100615.78;4497036;31;34654;-75
2022/12/04 03:57:03;;;;;;;51.30;27.42;;;;;;;4.69;85.60;100619.00;4510002;31;34699;-75
2022/12/04 03:59:38;;;;;;;50.97;26.58;;;;;;;4.82;85.66;100619.22;4502856;31;33754;-74
2022/12/04 04:02:09;;;;;;;55.80;27.35;;;;;;;5.23;82.39;100616.50;4507709;31;34676;-75
2022/12/04 04:04:37;;;;;;;49.35;27.27;;;;;;;5.26;82.59;100610.72;4511623;31;34483;-75
2022/12/04 04:07:25;;;;;;;54.40;27.27;;;;;;;5.12;83.10;100601.94;4509268;31;33871;-74
2022/12/04 04:10:05;;;;;;;46.83;25.40;;;;;;;5.07;83.38;100603.22;4515834;31;34594;-74
2022/12/04 04:12:37;;;;;;;47.55;25.80;;;;;;;4.80;84.39;100602.81;4505290;31;34514;-74
2022/12/04 04:26:33;;;;;;;43.97;23.08;;;;;;;4.82;83.81;100619.22;4511675;31;34280;-74
2022/12/04 04:29:01;;;;;;;46.97;24.10;;;;;;;4.88;83.01;100627.41;4507824;31;33732;-75
2022/12/04 04:31:37;;;;;;;43.35;24.10;;;;;;;4.38;85.56;100625.88;4516565;31;33078;-74
2022/12/04 04:34:32;;;;;;;42.60;23.10;;;;;;;4.70;84.34;100631.09;4500067;31;34625;-75
2022/12/04 04:37:28;;;;;;;46.20;23.73;;;;;;;4.56;85.09;100631.62;4505232;31;33851;-74
2022/12/04 04:40:14;;;;;;;43.60;24.25;;;;;;;4.57;85.02;100633.41;4515843;31;34621;-74
2022/12/04 04:42:54;;;;;;;47.88;25.67;;;;;;;4.63;84.99;100628.78;4516171;31;33544;-74
2022/12/04 04:45:32;;;;;;;45.12;24.65;;;;;;;4.38;85.32;100621.62;4506282;31;34416;-73
2022/12/04 04:48:17;;;;;;;51.72;27.10;;;;;;;4.20;86.23;100617.56;4509702;31;33441;-72
2022/12/04 04:50:45;;;;;;;44.28;23.38;;;;;;;4.53;85.36;100615.19;4512773;31;34870;-73
2022/12/04 04:53:17;;;;;;;43.15;22.55;;;;;;;4.31;85.13;100620.25;4502331;31;34400;-72
2022/12/04 04:55:45;;;;;;;42.78;22.23;;;;;;;4.65;83.92;100622.09;4505795;31;34423;-73
2022/12/04 04:58:16;;;;;;;43.78;22.87;;;;;;;4.43;84.58;100612.66;4510630;31;34618;-72
2022/12/04 05:00:49;;;;;;;47.97;23.70;;;;;;;4.28;85.71;100613.97;4515439;31;33973;-73
2022/12/04 05:03:17;;;;;;;41.75;23.38;;;;;;;4.53;84.45;100633.16;4511472;31;33710;-72
2022/12/04 05:05:44;;;;;;;39.78;21.27;;;;;;;4.53;84.43;100635.72;4516773;31;33860;-72
2022/12/04 05:08:12;;;;;;;42.35;21.75;;;;;;;4.71;83.43;100641.50;4516581;31;33912;-72
2022/12/04 05:10:39;;;;;;;39.88;21.48;;;;;;;4.80;82.75;100635.28;4516180;31;34296;-72
2022/12/04 05:13:08;;;;;;;43.05;20.52;;;;;;;4.91;82.32;100631.94;4516580;31;33360;-72
2022/12/04 05:15:35;;;;;;;39.83;20.65;;;;;;;4.76;82.00;100626.44;4505457;31;34076;-72
2022/12/04 05:18:04;;;;;;;39.65;20.37;;;;;;;4.96;81.44;100628.03;4513644;31;34455;-72
2022/12/04 05:20:31;;;;;;;41.13;20.15;;;;;;;4.94;81.00;100621.88;4512766;31;33960;-72
2022/12/04 05:22:59;;;;;;;41.13;21.12;;;;;;;4.63;82.28;100623.66;4512342;31;33384;-73
2022/12/04 05:25:26;;;;;;;41.30;22.50;;;;;;;4.61;82.55;100626.09;4507740;31;34530;-72
2022/12/04 05:27:54;;;;;;;40.33;19.83;;;;;;;4.61;82.91;100620.06;4514231;31;33354;-73
2022/12/04 05:30:21;;;;;;;36.92;19.80;;;;;;;4.45;83.79;100623.94;4515315;31;33813;-73
2022/12/04 05:32:49;;;;;;;40.95;21.77;;;;;;;4.26;84.85;100626.66;4510170;31;33858;-73
2022/12/04 05:35:16;;;;;;;39.58;20.83;;;;;;;4.33;84.23;100622.94;4513876;31;33751;-72
2022/12/04 05:37:44;;;;;;;40.10;19.80;;;;;;;4.74;81.98;100628.00;4507012;31;33876;-72
2022/12/04 05:40:12;;;;;;;39.08;19.00;;;;;;;4.65;82.26;100627.25;4515911;31;34100;-72
2022/12/04 05:42:39;;;;;;;35.83;18.55;;;;;;;4.67;82.54;100628.25;4511657;31;34412;-72
2022/12/04 05:45:07;;;;;;;33.67;18.17;;;;;;;4.93;81.53;100626.13;4508840;31;34345;-72
2022/12/04 05:47:38;;;;;;;35.53;18.75;;;;;;;5.04;80.36;100623.53;4515334;31;33839;-73
2022/12/04 05:50:08;;;;;;;34.47;18.85;;;;;;;4.81;80.94;100629.38;4503429;31;33842;-73
2022/12/04 05:52:35;;;;;;;36.97;19.60;;;;;;;5.08;80.34;100615.28;4512078;31;33398;-73
2022/12/04 05:55:03;;;;;;;36.58;19.25;;;;;;;4.85;81.09;100622.06;4508390;31;33603;-72
2022/12/04 05:57:31;;;;;;;34.47;17.75;;;;;;;4.95;80.97;100633.06;4505880;31;34455;-72
2022/12/04 05:59:58;;;;;;;30.95;17.87;;;;;;;4.63;81.64;100627.09;4511700;31;34574;-72
2022/12/04 06:02:26;;;;;;;35.95;17.92;;;;;;;4.82;81.02;100624.38;4512398;31;33167;-74
2022/12/04 06:04:53;;;;;;;37.03;18.15;;;;;;;5.22;78.96;100619.84;4514585;31;35036;-73
2022/12/04 06:07:21;;;;;;;32.05;17.50;;;;;;;4.82;80.50;100634.63;4516453;31;34531;-73
2022/12/04 06:09:48;;;;;;;32.35;16.37;;;;;;;4.78;80.99;100624.91;4502821;31;33680;-73
2022/12/04 06:12:16;;;;;;;32.28;16.80;;;;;;;5.21;79.82;100617.16;4512278;31;32132;-74
2022/12/04 06:14:43;;;;;;;32.67;18.35;;;;;;;5.08;79.40;100612.72;4508005;31;34752;-73
2022/12/04 06:17:11;;;;;;;31.37;15.13;;;;;;;5.15;79.02;100627.84;4508121;31;33674;-73
2022/12/04 06:19:39;;;;;;;33.40;16.80;;;;;;;5.09;79.34;100638.53;4508989;31;33340;-73
2022/12/04 06:22:06;;;;;;;29.90;16.02;;;;;;;5.16;78.73;100639.00;4508435;31;33283;-73
2022/12/04 06:24:34;;;;;;;29.90;15.23;;;;;;;4.78;80.09;100635.16;4510564;31;34485;-73
2022/12/04 06:27:02;;;;;;;28.42;15.05;;;;;;;5.05;79.48;100646.75;4508822;31;34855;-73
2022/12/04 06:29:49;;;;;;;33.88;17.52;;;;;;;5.24;78.57;100632.81;4488234;31;32640;-74
2022/12/04 06:32:17;;;;;;;32.08;16.58;;;;;;;5.11;79.08;100638.66;4503026;31;33731;-74
2022/12/04 06:34:50;;;;;;;29.20;15.77;;;;;;;5.27;79.00;100639.09;4515945;31;33445;-73
2022/12/04 06:37:19;;;;;;;33.50;16.67;;;;;;;5.43;77.35;100637.75;4511197;31;34684;-74
2022/12/04 06:39:46;;;;;;;26.23;14.98;;;;;;;5.42;77.85;100638.50;4504263;31;33927;-73
2022/12/04 06:42:14;;;;;;;29.37;15.75;;;;;;;4.92;80.21;100639.75;4513671;31;34016;-74
2022/12/04 06:44:42;;;;;;;33.95;17.73;;;;;;;4.68;81.25;100637.78;4513601;31;33672;-74
2022/12/04 06:47:09;;;;;;;34.50;17.12;;;;;;;4.86;80.62;100631.53;4510824;31;33769;-73
2022/12/04 06:49:36;;;;;;;33.97;17.77;;;;;;;4.94;80.86;100627.03;4504593;31;33561;-74
2022/12/04 06:52:04;;;;;;;35.95;17.05;;;;;;;4.81;81.15;100617.47;4505689;31;33543;-74
2022/12/04 06:54:31;;;;;;;38.03;17.90;;;;;;;5.24;80.19;100626.00;4507213;31;34539;-73
2022/12/04 06:56:59;;;;;;;31.73;17.08;;;;;;;4.90;81.50;100625.88;4507438;31;33419;-73
2022/12/04 06:59:26;;;;;;;35.78;17.67;;;;;;;4.98;80.76;100631.62;4501844;31;33968;-73
2022/12/04 07:01:54;;;;;;;35.63;17.73;;;;;;;5.15;79.90;100615.00;4508773;31;32838;-73
2022/12/04 07:04:22;;;;;;;31.40;17.62;;;;;;;5.07;80.32;100614.38;4512724;31;34611;-74
2022/12/04 07:06:49;;;;;;;33.15;17.75;;;;;;;5.38;78.65;100616.81;4506232;31;33722;-73
2022/12/04 07:09:17;;;;;;;34.72;17.62;;;;;;;5.19;79.68;100617.03;4513854;31;33869;-73
2022/12/04 07:11:45;;;;;;;35.10;19.40;;;;;;;5.23;79.97;100621.62;4510226;31;33488;-74
2022/12/04 07:14:12;;;;;;;37.13;18.00;;;;;;;5.26;79.91;100627.03;4514027;31;34416;-73
2022/12/04 07:16:41;;;;;;;33.90;18.40;;;;;;;5.29;79.89;100622.16;4515977;31;35256;-74
2022/12/04 07:19:10;;;;;;;36.08;18.83;;;;;;;5.24;80.05;100617.41;4509570;31;34451;-74
2022/12/04 07:21:39;;;;;;;35.33;19.30;;;;;;;5.06;81.23;100621.97;4505827;31;33451;-73
2022/12/04 07:24:06;;;;;;;35.22;18.98;;;;;;;4.99;81.48;100627.41;4512058;31;33486;-74
2022/12/04 07:26:34;;;;;;;36.58;19.15;;;;;;;5.14;81.08;100626.06;4511031;31;33474;-74
2022/12/04 07:29:02;;;;;;;34.67;20.08;;;;;;;5.27;80.75;100623.69;4510794;31;33642;-74
2022/12/04 07:31:29;;;;;;;40.17;20.45;;;;;;;5.37;81.01;100614.13;4513247;31;33031;-74
2022/12/04 07:33:57;;;;;;;39.40;20.20;;;;;;;4.82;83.69;100620.91;4515007;31;33807;-74
2022/12/04 07:36:25;;;;;;;40.58;20.45;;;;;;;5.32;81.10;100619.78;4514828;31;33823;-74
2022/12/04 07:38:54;;;;;;;38.97;20.62;;;;;;;5.64;80.59;100621.44;4516605;31;33783;-74
2022/12/04 07:41:22;;;;;;;38.95;19.70;;;;;;;5.15;82.47;100622.69;4507711;31;33450;-74
2022/12/04 07:43:49;;;;;;;41.47;21.48;;;;;;;5.24;83.16;100617.41;4513788;31;33803;-74
2022/12/04 07:46:20;;;;;;;43.22;22.35;;;;;;;5.01;83.77;100631.00;4504271;31;34554;-74
2022/12/04 07:48:47;;;;;;;44.78;22.85;;;;;;;5.17;84.14;100626.28;4510303;31;33137;-74
2022/12/04 07:51:20;;;;;;;46.08;24.55;;;;;;;5.63;81.36;100631.59;4515014;31;34196;-74
2022/12/04 07:53:49;;;;;;;44.67;21.70;;;;;;;5.23;82.98;100626.75;4502556;31;33286;-74
2022/12/04 07:56:18;;;;;;;38.17;22.10;;;;;;;5.14;84.08;100638.91;4514837;31;33980;-74
2022/12/04 07:58:45;;;;;;;41.25;22.67;;;;;;;5.13;84.67;100626.81;4506872;31;34371;-74
2022/12/04 08:01:21;;;;;;;38.42;21.55;;;;;;;5.22;84.24;100627.56;4508111;31;33404;-73
2022/12/04 08:03:51;;;;;;;39.17;20.35;;;;;;;5.53;82.83;100619.69;4514165;31;33676;-74
2022/12/04 08:06:20;;;;;;;41.05;21.65;;;;;;;5.68;82.58;100608.03;4507404;31;33807;-74
2022/12/04 08:08:49;;;;;;;39.22;21.70;;;;;;;5.57;82.68;100629.44;4506166;31;34161;-74
2022/12/04 08:11:20;;;;;;;45.28;22.77;;;;;;;5.59;82.46;100620.16;4514200;31;33682;-74
2022/12/04 08:13:47;;;;;;;38.50;20.88;;;;;;;5.87;81.64;100624.84;4517478;31;34790;-73
2022/12/04 08:16:15;;;;;;;45.12;23.15;;;;;;;5.57;83.22;100637.13;4499585;31;34661;-73
2022/12/04 08:18:47;;;;;;;42.13;21.00;;;;;;;5.67;82.57;100620.75;4511225;31;32407;-74
2022/12/04 08:21:19;;;;;;;41.30;22.37;;;;;;;5.72;83.10;100617.75;4512110;31;33343;-74
2022/12/04 08:23:51;;;;;;;40.00;21.60;;;;;;;5.98;81.34;100618.00;4511831;31;32380;-74
2022/12/04 08:26:19;;;;;;;44.35;22.80;;;;;;;5.81;82.17;100616.66;4506645;31;34591;-72
2022/12/04 08:28:47;;;;;;;40.75;21.95;;;;;;;6.20;81.01;100620.50;4510629;31;33685;-73
2022/12/04 08:31:26;;;;;;;41.97;22.35;;;;;;;6.34;79.90;100625.03;4514845;31;33444;-72
2022/12/04 08:33:56;;;;;;;37.83;21.73;;;;;;;6.30;80.34;100623.00;4509098;31;33811;-73
2022/12/04 08:36:24;;;;;;;42.42;21.55;;;;;;;6.19;80.27;100623.87;4512230;31;32528;-75
2022/12/04 08:38:51;;;;;;;42.92;22.70;;;;;;;6.36;80.59;100622.56;4513017;31;33787;-75
2022/12/04 08:41:22;;;;;;;40.17;21.55;;;;;;;6.47;79.53;100616.53;4510803;31;32969;-74
2022/12/04 08:43:53;;;;;;;38.65;21.73;;;;;;;6.62;79.35;100621.91;4513841;31;34263;-74
2022/12/04 08:46:22;;;;;;;38.60;20.45;;;;;;;6.87;78.31;100619.44;4508764;31;33848;-74
2022/12/04 08:48:50;;;;;;;39.42;20.27;;;;;;;6.97;77.63;100626.16;4510708;31;35012;-74
2022/12/04 08:51:23;;;;;;;40.92;22.37;;;;;;;6.67;78.98;100625.72;4509429;31;33539;-74
2022/12/04 08:53:53;;;;;;;43.38;21.02;;;;;;;6.70;79.00;100618.22;4507718;31;33883;-74
2022/12/04 08:56:22;;;;;;;41.00;21.85;;;;;;;6.79;79.64;100621.47;4511240;31;33977;-72
2022/12/04 08:58:49;;;;;;;43.15;21.37;;;;;;;7.12;77.82;100623.81;4511283;31;34335;-73
2022/12/04 09:01:17;;;;;;;38.72;20.75;;;;;;;6.96;78.72;100614.09;4514660;31;34216;-73
2022/12/04 09:03:45;;;;;;;45.33;22.67;;;;;;;6.62;79.94;100624.47;4503899;31;33888;-73
2022/12/04 09:06:14;;;;;;;40.30;21.77;;;;;;;6.74;79.39;100621.91;4501268;31;34495;-73
2022/12/04 09:08:42;;;;;;;40.42;21.92;;;;;;;6.53;80.08;100621.22;4513570;31;34546;-73
2022/12/04 09:11:16;;;;;;;42.25;23.45;;;;;;;6.66;80.48;100616.19;4513128;31;33364;-72
2022/12/04 09:13:44;;;;;;;38.05;20.85;;;;;;;7.08;79.03;100609.78;4506156;31;33434;-73
2022/12/04 09:16:15;;;;;;;39.22;21.95;;;;;;;6.98;78.87;100607.34;4510465;31;33999;-74
2022/12/04 09:18:43;;;;;;;41.65;22.25;;;;;;;7.15;77.77;100606.87;4514790;31;33726;-73
2022/12/04 09:21:13;;;;;;;41.08;21.95;;;;;;;7.03;78.01;100595.69;4514533;31;34211;-73
2022/12/04 09:23:41;;;;;;;36.40;22.27;;;;;;;7.18;78.10;100601.94;4510762;31;33606;-73
2022/12/04 09:26:27;;;;;;;41.00;21.15;;;;;;;7.36;77.67;100591.12;4514055;31;32394;-73
2022/12/04 09:28:56;;;;;;;39.95;22.08;;;;;;;7.03;78.97;100603.41;4514177;31;33951;-74
2022/12/04 09:31:25;;;;;;;42.85;21.27;;;;;;;7.12;79.24;100598.91;4512038;31;35204;-73
2022/12/04 09:33:53;;;;;;;42.67;22.90;;;;;;;7.14;79.18;100599.91;4514164;31;33738;-73
2022/12/04 09:36:22;;;;;;;41.33;22.62;;;;;;;7.02;79.52;100599.06;4512111;31;33780;-73
2022/12/04 09:38:51;;;;;;;37.60;20.75;;;;;;;6.95;79.96;100601.97;4506290;31;34531;-73
2022/12/04 09:41:28;;;;;;;39.47;22.52;;;;;;;6.93;79.23;100594.13;4494184;31;33615;-74
2022/12/04 09:44:03;;;;;;;39.63;21.52;;;;;;;7.00;80.17;100586.06;4505308;31;34529;-74
2022/12/04 09:46:37;;;;;;;37.75;21.52;;;;;;;7.07;80.38;100582.25;4492580;31;32665;-74
2022/12/04 09:49:11;;;;;;;38.28;19.90;;;;;;;7.41;79.73;100574.31;4498389;31;33874;-75
2022/12/04 09:51:40;;;;;;;36.20;21.62;;;;;;;7.38;79.38;100566.34;4502850;31;33321;-74
2022/12/04 09:54:23;;;;;;;40.03;21.42;;;;;;;7.35;79.61;100566.16;4506212;31;34299;-74
2022/12/04 09:56:54;;;;;;;39.63;20.67;;;;;;;7.33;79.30;100558.31;4489545;31;32976;-74
2022/12/04 09:59:24;;;;;;;37.45;19.73;;;;;;;7.65;77.85;100568.28;4510762;31;34531;-74
2022/12/04 10:02:01;;;;;;;37.90;19.58;;;;;;;7.75;77.44;100562.06;4507628;31;33503;-75
2022/12/04 10:04:33;;;;;;;39.03;19.80;;;;;;;7.43;77.37;100555.56;4505310;31;34600;-74
2022/12/04 10:07:08;;;;;;;37.17;20.62;;;;;;;7.45;77.94;100550.53;4508094;31;33791;-74
2022/12/04 10:09:51;;;;;;;37.85;20.62;;;;;;;7.71;76.72;100561.72;4514100;31;34398;-74
2022/12/04 10:12:46;;;;;;;35.13;20.23;;;;;;;7.65;76.66;100557.97;4500821;31;31884;-73
2022/12/04 10:15:19;;;;;;;33.75;19.80;;;;;;;7.65;77.53;100550.22;4511095;31;34531;-74
2022/12/04 10:18:08;;;;;;;38.40;21.25;;;;;;;7.67;78.96;100547.75;4512658;31;33691;-75
2022/12/04 10:21:01;;;;;;;34.15;18.92;;;;;;;7.98;77.22;100550.72;4509690;31;33659;-74
2022/12/04 10:23:45;;;;;;;37.75;20.10;;;;;;;7.96;76.15;100541.06;4511928;31;33344;-73
2022/12/04 10:26:17;;;;;;;30.12;17.00;;;;;;;8.12;76.33;100537.84;4507297;31;34131;-73
2022/12/04 10:28:56;;;;;;;33.08;17.25;;;;;;;8.13;74.96;100544.78;4512591;31;34558;-73
2022/12/04 10:31:25;;;;;;;29.48;18.30;;;;;;;8.43;74.11;100531.34;4498140;31;33597;-72
2022/12/04 10:33:54;;;;;;;35.67;19.20;;;;;;;8.48;74.98;100533.31;4510052;31;33409;-72
2022/12/04 10:36:30;;;;;;;34.78;19.48;;;;;;;8.55;74.43;100530.34;4505494;31;34625;-74
2022/12/04 10:39:04;;;;;;;38.25;21.50;;;;;;;8.71;72.59;100521.87;4510609;31;33882;-74
2022/12/04 10:41:49;;;;;;;38.85;21.50;;;;;;;9.09;70.68;100516.56;4509725;31;33406;-74
2022/12/04 10:44:18;;;;;;;32.03;16.55;;;;;;;8.95;71.56;100517.41;4503559;31;34464;-75
2022/12/04 10:46:46;;;;;;;34.38;19.23;;;;;;;8.93;73.06;100506.06;4501413;31;33665;-74
2022/12/04 10:49:18;;;;;;;29.17;16.30;;;;;;;9.33;72.37;100495.59;4500361;31;34479;-74
2022/12/04 10:51:46;;;;;;;28.92;15.98;;;;;;;9.35;68.35;100502.66;4502468;31;33584;-75
2022/12/04 10:54:31;;;;;;;31.58;16.73;;;;;;;9.41;70.73;100494.37;4505137;31;33159;-74
2022/12/04 10:57:01;;;;;;;23.77;15.05;;;;;;;9.77;67.30;100489.59;4507263;31;32188;-74
2022/12/04 10:59:28;;;;;;;27.80;14.60;;;;;;;9.18;70.73;100488.69;4504119;31;33801;-74
2022/12/04 11:02:20;;;;;;;26.15;13.23;;;;;;;9.34;68.57;100487.03;4500858;31;34718;-74
2022/12/04 11:04:56;;;;;;;24.25;14.23;;;;;;;9.15;70.71;100480.75;4511619;31;33315;-74
2022/12/04 11:07:27;;;;;;;24.40;13.77;;;;;;;9.11;69.82;100472.72;4512149;31;33049;-74
2022/12/04 11:10:05;;;;;;;23.83;13.40;;;;;;;9.43;68.00;100456.56;4510563;31;34373;-74
2022/12/04 11:12:33;;;;;;;26.75;14.48;;;;;;;9.65;65.73;100459.59;4514275;31;34463;-74
2022/12/04 11:15:07;;;;;;;23.17;13.15;;;;;;;9.36;68.90;100454.41;4503384;31;34401;-75
2022/12/04 11:17:35;;;;;;;;;;;;;;;9.67;65.95;100451.94;4503942;31;34006;-74
2022/12/04 11:20:28;;;;;;;19.85;11.38;;;;;;;9.42;66.91;100444.44;4514300;31;33796;-74
2022/12/04 11:22:57;;;;;;;19.85;11.35;;;;;;;9.30;68.98;100443.72;4500278;31;34097;-74
2022/12/04 11:25:30;;;;;;;22.25;12.00;;;;;;;9.36;68.94;100444.06;4511270;31;33154;-74
2022/12/04 11:28:00;;;;;;;19.50;12.18;;;;;;;9.52;67.72;100451.97;4508540;31;33744;-74
2022/12/04 11:30:35;;;;;;;26.10;12.60;;;;;;;9.02;68.55;100439.44;4502955;31;34591;-74
2022/12/04 11:33:06;;;;;;;23.90;13.45;;;;;;;9.57;68.03;100435.00;4499894;31;34201;-74
2022/12/04 11:35:34;;;;;;;22.65;12.40;;;;;;;9.30;68.49;100433.37;4507377;31;33063;-74
2022/12/04 11:38:12;;;;;;;23.83;14.10;;;;;;;9.20;71.86;100443.16;4503293;31;33940;-74
2022/12/04 11:41:09;;;;;;;25.20;14.10;;;;;;;9.48;71.37;100447.37;4504780;31;33308;-74
2022/12/04 11:43:47;;;;;;;24.08;14.65;;;;;;;9.71;67.28;100442.69;4502405;31;33657;-74
2022/12/04 11:46:20;;;;;;;25.55;13.98;;;;;;;9.38;68.59;100438.19;4512957;31;33265;-74
2022/12/04 11:48:49;;;;;;;24.73;14.07;;;;;;;9.58;68.39;100430.72;4508166;31;33788;-74
2022/12/04 11:51:35;;;;;;;28.83;16.52;;;;;;;9.78;67.04;100419.84;4507189;31;33479;-74